Rathdrum, ID (83858)

7:32 PM PST on December 28, 2014 (GMT -0800)
Coeur D'Alene | Change Station
CLOSE
Current Station
Airport
Location: Coeur d'Alene,
Elevation: 2320 ft
Nearby Weather Stations
Active Advisory: Wind Advisory Active Notice: Local Storm Report

Elev 2320 ft 47.77 °N, 116.82 °W | Updated 17 minutes ago

Overcast
Overcast
28 °F
Feels Like 18 °F
N
12
Wind Variable Wind from North

Today
High -- | Low -- °F
--% Chance of Precip.
Yesterday
High -- | Low -- °F
Precip. -- in
7:36 AM 4:02 PM
First Quarter, 54% visible
Pressure 30.10 in
Visibility 5.0 miles
Clouds Few 1500 ft
Mostly Cloudy 2300 ft
Overcast 2700 ft
Windchill 18 °F
Dew Point 25 °F
Humidity 86%
Rainfall 0.03 in
Snow Depth Not available.
UV 0 out of 12
Pollen .10 out of 12
Air Quality Not available.
Flu Activity Not available.
METAR KCOE 290315Z AUTO 01010KT 5SM FEW015 BKN023 OVC027 M02/M04 A3010 RMK AO1

More Conditions Fewer Conditions

Pressure 30.10 in
Visibility 5.0 miles
Clouds Few 1500 ft
Mostly Cloudy 2300 ft
Overcast 2700 ft
Windchill 18 °F
Dew Point 25 °F
Humidity 86%
Rainfall 0.03 in
Snow Depth Not available.
UV 0 out of 12
Pollen .10 out of 12
Air Quality Not available.
Flu Activity Not available.
METAR KCOE 290315Z AUTO 01010KT 5SM FEW015 BKN023 OVC027 M02/M04 A3010 RMK AO1

More Conditions Fewer Conditions

10-Day Weather Forecast

Almanac

Astronomy

Dec. 28, 2014 Rise Set
Actual Time
Civil Twilight
Nautical Twilight
Astronomical Twilight
Moon
Length of Visible Light
Length of Day
Tomorrow will be .
, % of the Moon is Illuminated

Today's Extremes

State Highs State Lows

Community

WunderPhotos

Upload Photos

1,781,518 photos uploaded!

WunderBlogs® & News

Nearby

Air Quality

  Air Quality AQ Index Pollutant
Not available.

Snow Depth

Station Depth Elevation

Earthquake Activity

City Distance Mag. Time & Date
Minimum magnitude displayed is 2.5.

Coastal Water Temperatures

Place Temperature

Nearby Weather Stations